Flight Track Log - Related Links

Times and Time Zones

All times are in EDT time to prevent confusion due to time zone crossing. See the DAL3643 flight status page for this flight to view local times or setup timezone preferences in your user account.

Time Position Orientation Groundspeed Altitude Reporting Facility
EDT Latitude Longitude Course Direction KTS MPH feet Rate Location/Type
Sun 11:34:54 AM 38.7169 -90.2592 109° East 177 204 4,200  Level Kansas City Center
Sun 11:35:56 AM 38.6956 -90.1733 108° East 228 262 6,700 2,710 Climbing Kansas City Center
Sun 11:36:00 AM 38.6478 -90.0139 111° Southeast  Level FlightAware Approximate
Sun 11:36:58 AM 38.6711 -90.0858 110° East 256 295 9,800  Level Kansas City Center
Sun 11:37:00 AM 38.6180 -89.9012 107° East  Level FlightAware Approximate
Sun 11:38:00 AM 38.5912 -89.7873 107° East  Level FlightAware Approximate
Sun 11:38:00 AM 38.6444 -89.9856 109° East 290 334 11,200  Level Kansas City Center
Sun 11:39:00 AM 38.5639 -89.6736 110° East  Level FlightAware Approximate
Sun 11:39:02 AM 38.6139 -89.8736 109° East 328 377 13,100  Level Kansas City Center
Sun 11:40:00 AM 38.5332 -89.5662 109° East  Level FlightAware Approximate
Sun 11:40:04 AM 38.5833 -89.7592 109° East 338 389 15,000  Level Kansas City Center
Sun 11:41:05 AM 38.5450 -89.6150 109° East 345 397 16,900 1,512 Climbing Kansas City Center
Sun 11:42:07 AM 38.5131 -89.4964 109° East 354 407 18,100 1,258 Climbing Kansas City Center
Sun 11:43:09 AM 38.4789 -89.3739 110° East 364 419 19,500 1,500 Climbing Kansas City Center
Sun 11:44:11 AM 38.4439 -89.2464 109° East 356 410 21,200 1,694 Climbing Kansas City Center
Sun 11:45:13 AM 38.4158 -89.1308 107° East 344 396 23,000 1,500 Climbing Kansas City Center
Sun 11:46:15 AM 38.4114 -89.0011 92° East 342 394 24,300 1,161 Climbing Kansas City Center
Sun 11:47:17 AM 38.4047 -88.8817 94° East 339 390 25,400 1,065 Climbing Kansas City Center
Sun 11:48:19 AM 38.3978 -88.7622 94° East 338 389 26,500 774 Climbing Kansas City Center
Sun 11:49:21 AM 38.3903 -88.6308 94° East 342 394 27,000 242 Climbing Kansas City Center
Sun 11:50:23 AM 38.3811 -88.5019 95° East 360 414 27,000  Level Kansas City Center
Sun 11:51:24 AM 38.3739 -88.3689 94° East 372 428 27,000  Level Kansas City Center
Sun 11:52:26 AM 38.3644 -88.2331 95° East 382 440 27,000 -212 Level Kansas City Center
Sun 11:53:17 AM 38.3589 -88.1236 94° East 389 448 26,600 -850 Descending Indianapolis Center
Sun 11:54:19 AM 38.3500 -87.9878 95° East 384 442 25,400 -1,113 Descending Indianapolis Center
Sun 11:55:21 AM 38.3411 -87.8567 95° East 373 429 24,300 -1,161 Descending Indianapolis Center
Sun 11:56:23 AM 38.3303 -87.7011 95° East 365 420 23,000 -629 Descending Indianapolis Center
Sun 11:57:25 AM 38.3214 -87.5744 95° East 361 415 23,000  Level Indianapolis Center
Sun 11:58:27 AM 38.3131 -87.4467 95° East 360 414 23,000  Level Indianapolis Center
Sun 11:59:29 AM 38.3044 -87.3197 95° East 360 414 23,000 -194 Level Indianapolis Center
Sun 12:00:31 PM 38.2947 -87.1919 95° East 362 417 22,600 -780 Descending Indianapolis Center
Sun 12:01:32 PM 38.2847 -87.0444 95° East 372 428 21,400 -780 Descending Indianapolis Center
Sun 12:02:34 PM 38.2731 -86.9008 96° East 393 452 21,000 -194 Descending Indianapolis Center
Sun 12:03:36 PM 38.2639 -86.7694 95° East 378 435 21,000  Level Indianapolis Center
Sun 12:04:38 PM 38.2797 -86.6450 81° East 363 418 21,000  Level Indianapolis Center
Sun 12:05:40 PM 38.3169 -86.5219 69° East 373 429 21,000 -97 Level Indianapolis Center
Sun 12:06:42 PM 38.3553 -86.3969 69° East 375 432 20,800 -585 Descending Indianapolis Center
Sun 12:07:43 PM 38.3956 -86.2686 68° East 387 445 19,800 -1,122 Descending Indianapolis Center
Sun 12:08:45 PM 38.4436 -86.1092 69° East 400 460 18,500 -1,113 Descending Indianapolis Center
Sun 12:09:47 PM 38.4817 -85.9886 68° East 369 425 17,500 -774 Descending Indianapolis Center
Sun 12:10:49 PM 38.5156 -85.8750 69° East 346 398 16,900 -1,065 Descending Indianapolis Center
Sun 12:11:51 PM 38.5525 -85.7583 68° East 352 405 15,300 -1,694 Descending Indianapolis Center
Sun 12:12:53 PM 38.5892 -85.6358 69° East 366 421 13,400 -1,935 Descending Indianapolis Center
Sun 12:13:55 PM 38.6458 -85.5117 60° Northeast 371 427 11,300 -1,171 Descending Indianapolis Center
Sun 12:14:56 PM 38.6981 -85.3989 59° Northeast 369 425 11,000 -98 Descending Indianapolis Center
Sun 12:15:58 PM 38.7458 -85.2858 62° Northeast 365 420 11,100 48 Climbing Indianapolis Center
Sun 12:17:00 PM 38.7942 -85.1728 61° Northeast 365 420 11,100  Level Indianapolis Center
Sun 12:18:02 PM 38.8422 -85.0636 60° Northeast 354 407 11,100  Level Indianapolis Center
Sun 12:19:04 PM 38.8972 -84.9339 61° Northeast 348 400 11,100 -238 Level Indianapolis Center
Sun 12:19:43 PM 38.9333 -84.8667 55° Northeast 314 361 10,700 -1,333 Descending Cincinnati TRACON
Sun 12:20:43 PM 38.9667 -84.7833 63° Northeast 280 322 8,900 -1,800 Descending Cincinnati TRACON
Sun 12:21:43 PM 39.0500 -84.7833 360° North 295 339 7,100 -1,500 Descending Cincinnati TRACON
Sun 12:22:43 PM 39.1333 -84.7833 360° North 290 334 5,900 -1,500 Descending Cincinnati TRACON
Sun 12:23:43 PM 39.2167 -84.7833 360° North 294 338 4,100 -1,400 Descending Cincinnati TRACON
Sun 12:24:43 PM 39.2833 -84.7333 30° Northeast 236 272 3,100 -550 Descending Cincinnati TRACON
Sun 12:25:43 PM 39.2500 -84.6833 131° Southeast 189 217 3,000 -50 Descending Cincinnati TRACON
Sun 12:26:43 PM 39.2167 -84.6667 159° South 187 215 3,000 -250 Level Cincinnati TRACON
Sun 12:27:43 PM 39.1667 -84.6667 180° South 177 204 2,500 -500 Descending Cincinnati TRACON
Sun 12:28:43 PM 39.1167 -84.6667 180° South 145 167 2,000 -645 Descending Cincinnati TRACON
Sun 12:29:44 PM 39.0833 -84.6667 180° South 127 146 1,200 -787 Descending Cincinnati TRACON

Login

Don't have an account? Register now (free) for customized features, flight alerts, and more!